Time;durP1;ratioP1;P1;durP2;ratioP2;P2;SDS_P1;SDS_P2;PMS_P1;PMS_P2;Temp;Humidity;BMP_temperature;BMP_pressure;BME280_temperature;BME280_humidity;BME280_pressure;Samples;Min_cycle;Max_cycle;Signal;HPM_P1;HPM_P2
2022/10/03 00:01:50;;;;;;;26.30;3.65;;;;;;;9.12;100.00;154818.44;4899882;29;20060;-77
2022/10/03 00:04:36;;;;;;;23.63;4.10;;;;;;;9.28;100.00;154858.16;4928940;29;20127;-77
2022/10/03 00:07:16;;;;;;;26.30;3.55;;;;;;;9.24;100.00;154849.19;4898995;29;20035;-77
2022/10/03 00:10:24;;;;;;;22.20;3.42;;;;;;;9.13;100.00;154822.25;4895693;29;20044;-79
2022/10/03 00:13:09;;;;;;;22.80;3.40;;;;;;;9.10;100.00;154814.59;4838246;29;20923;-79
2022/10/03 00:15:40;;;;;;;23.20;3.53;;;;;;;9.07;100.00;154805.63;4896235;29;20048;-78
2022/10/03 00:18:21;;;;;;;25.48;4.00;;;;;;;9.13;100.00;154820.97;4933020;29;20046;-78
2022/10/03 00:21:05;;;;;;;24.67;3.30;;;;;;;9.12;100.00;154818.44;4932726;29;20027;-79
2022/10/03 00:23:51;;;;;;;29.60;3.47;;;;;;;9.11;100.00;154817.13;4914738;29;20044;-79
2022/10/03 00:26:38;;;;;;;30.95;3.63;;;;;;;9.11;100.00;154815.88;4915811;29;20043;-78
2022/10/03 00:29:32;;;;;;;19.73;3.53;;;;;;;9.14;100.00;154823.56;4899346;29;20549;-78
2022/10/03 00:32:09;;;;;;;16.23;2.80;;;;;;;9.08;100.00;154809.47;4887162;29;20058;-77
2022/10/03 00:34:42;;;;;;;21.80;3.58;;;;;;;9.12;100.00;154818.44;4915800;29;20394;-78
2022/10/03 00:37:26;;;;;;;;;;;;;;;9.15;100.00;154827.44;4917759;29;20058;-79
2022/10/03 00:39:55;;;;;;;24.83;3.67;;;;;;;9.40;100.00;154888.94;4911014;29;20002;-78
2022/10/03 00:42:39;;;;;;;22.02;3.22;;;;;;;9.46;100.00;154904.31;4917231;29;20291;-79
2022/10/03 00:45:29;;;;;;;22.13;3.50;;;;;;;9.53;100.00;154920.97;4916890;29;20040;-77
2022/10/03 00:48:10;;;;;;;23.85;3.55;;;;;;;9.42;100.00;154894.06;4900291;29;20127;-78
2022/10/03 00:51:08;;;;;;;30.48;3.38;;;;;;;9.47;100.00;154906.84;4932640;29;20027;-78
2022/10/03 00:53:57;;;;;;;23.67;2.97;;;;;;;9.49;100.00;154910.72;4926590;29;20036;-79
2022/10/03 00:56:41;;;;;;;23.85;3.42;;;;;;;9.54;100.00;154923.56;4925319;29;20487;-78
2022/10/03 00:59:21;;;;;;;29.08;3.05;;;;;;;9.58;100.00;154932.53;4904193;29;20042;-78
2022/10/03 01:01:48;;;;;;;27.38;3.30;;;;;;;9.57;100.00;154929.94;4927185;29;20027;-78
2022/10/03 01:04:39;;;;;;;21.02;3.13;;;;;;;9.61;100.00;154940.25;4899753;29;20039;-77
2022/10/03 01:07:38;;;;;;;29.23;3.80;;;;;;;9.61;100.00;154940.25;4913669;29;20028;-78
2022/10/03 01:10:14;;;;;;;31.13;3.50;;;;;;;9.67;100.00;154956.88;4931800;29;20023;-80
2022/10/03 01:12:49;;;;;;;28.02;3.80;;;;;;;9.82;100.00;154994.06;4895814;29;20035;-76
2022/10/03 01:15:31;;;;;;;29.58;3.78;;;;;;;9.89;100.00;155010.75;4903179;29;20040;-79
2022/10/03 01:18:09;;;;;;;25.90;4.13;;;;;;;9.91;100.00;155015.88;4904117;29;20035;-80
2022/10/03 01:20:57;;;;;;;28.50;4.03;;;;;;;9.90;100.00;155013.31;4932872;29;20528;-78
2022/10/03 01:23:35;;;;;;;28.17;4.18;;;;;;;9.93;100.00;155021.00;4915985;29;20039;-78
2022/10/03 01:26:10;;;;;;;26.83;3.78;;;;;;;10.01;100.00;155040.25;4918487;29;20031;-78
2022/10/03 01:31:47;;;;;;;25.65;3.20;;;;;;;10.03;100.00;155045.38;4918423;29;20055;-80
2022/10/03 01:34:32;;;;;;;29.02;2.88;;;;;;;10.01;100.00;155041.50;4912274;29;20051;-78
2022/10/03 01:37:10;;;;;;;26.42;3.75;;;;;;;10.05;100.00;155051.75;4916771;29;20040;-78
2022/10/03 01:39:58;;;;;;;19.65;3.25;;;;;;;10.02;100.00;155042.78;4909758;29;20040;-78
2022/10/03 01:42:40;;;;;;;25.05;3.28;;;;;;;10.10;100.00;155064.59;4900778;29;20036;-80
2022/10/03 01:45:44;;;;;;;23.50;3.60;;;;;;;10.02;100.00;155044.09;4914505;29;20039;-79
2022/10/03 01:48:20;;;;;;;24.95;3.67;;;;;;;10.02;100.00;155044.09;4917204;29;20039;-75
2022/10/03 01:51:15;;;;;;;26.02;3.22;;;;;;;9.92;100.00;155019.69;4903153;29;20050;-79
2022/10/03 01:53:56;;;;;;;21.25;3.15;;;;;;;9.90;100.00;155014.56;4917829;29;20067;-80
2022/10/03 01:57:00;;;;;;;28.90;3.60;;;;;;;9.80;100.00;154988.94;4915159;29;20043;-77
2022/10/03 01:59:34;;;;;;;16.85;2.33;;;;;;;9.69;100.00;154960.75;4917589;29;20051;-76
2022/10/03 02:02:32;;;;;;;20.50;2.80;;;;;;;9.63;100.00;154945.38;4918287;29;20039;-78
2022/10/03 02:05:12;;;;;;;18.48;2.80;;;;;;;9.49;100.00;154910.72;4913580;29;20042;-78
2022/10/03 02:07:54;;;;;;;30.30;3.45;;;;;;;9.55;100.00;154927.41;4899200;29;20447;-81
2022/10/03 02:10:48;;;;;;;20.25;2.55;;;;;;;9.43;100.00;154895.34;4916879;29;20104;-78
2022/10/03 02:13:21;;;;;;;28.65;3.63;;;;;;;9.39;100.00;154886.38;4897862;29;20059;-77
2022/10/03 02:15:53;;;;;;;25.80;3.33;;;;;;;9.43;100.00;154895.34;4933286;29;20132;-80
2022/10/03 02:18:28;;;;;;;29.92;3.42;;;;;;;9.31;100.00;154865.88;4904850;29;20044;-80
2022/10/03 02:21:12;;;;;;;20.63;2.92;;;;;;;9.24;100.00;154847.91;4921660;29;20039;-78
2022/10/03 02:23:42;;;;;;;24.30;2.83;;;;;;;9.20;100.00;154838.94;4915635;29;20036;-77
2022/10/03 02:26:51;;;;;;;22.08;2.85;;;;;;;9.20;100.00;154837.66;4900928;29;20032;-79
2022/10/03 02:29:31;;;;;;;23.17;3.58;;;;;;;9.17;100.00;154831.22;4935426;29;20091;-79
2022/10/03 02:32:20;;;;;;;22.05;3.40;;;;;;;9.15;100.00;154827.44;4920357;29;20091;-79
2022/10/03 02:35:11;;;;;;;23.88;3.40;;;;;;;9.16;100.00;154828.69;4918330;29;20023;-78
2022/10/03 02:38:14;;;;;;;13.25;2.38;;;;;;;9.12;100.00;154818.44;4917361;29;20027;-78
2022/10/03 02:41:12;;;;;;;26.52;3.22;;;;;;;9.02;100.00;154792.78;4919478;29;20031;-79
2022/10/03 02:43:54;;;;;;;20.48;2.97;;;;;;;8.93;100.00;154772.28;4937973;29;20039;-78
2022/10/03 02:46:39;;;;;;;18.88;3.25;;;;;;;8.79;100.00;154736.41;4904548;29;20398;-78
2022/10/03 02:49:47;;;;;;;21.38;2.70;;;;;;;8.75;100.00;154727.44;4916238;29;20027;-80
2022/10/03 02:52:19;;;;;;;25.55;3.05;;;;;;;8.78;100.00;154733.84;4904077;29;20067;-78
2022/10/03 02:55:26;;;;;;;24.10;2.83;;;;;;;8.66;100.00;154704.34;4917549;29;20048;-79
2022/10/03 02:58:13;;;;;;;30.65;3.78;;;;;;;8.61;100.00;154691.56;4936905;29;20043;-81
2022/10/03 03:01:03;;;;;;;22.08;3.10;;;;;;;8.60;100.00;154689.00;4920875;29;20043;-79
2022/10/03 03:04:07;;;;;;;20.88;3.10;;;;;;;8.65;100.00;154700.56;4908831;29;20056;-79
2022/10/03 03:06:56;;;;;;;23.25;3.10;;;;;;;8.72;100.00;154719.78;4915816;29;20131;-80
2022/10/03 03:09:43;;;;;;;26.95;3.30;;;;;;;8.84;100.00;154749.22;4907779;29;20071;-80
2022/10/03 03:12:39;;;;;;;16.80;2.78;;;;;;;8.76;100.00;154728.75;4917991;29;20039;-79
2022/10/03 03:15:43;;;;;;;21.58;3.03;;;;;;;8.82;100.00;154742.84;4919721;29;20032;-79
2022/10/03 03:18:32;;;;;;;22.27;3.33;;;;;;;8.82;100.00;154742.84;4903456;29;20043;-79
2022/10/03 03:21:35;;;;;;;20.23;2.65;;;;;;;8.75;100.00;154726.16;4912091;29;20024;-81
2022/10/03 03:24:25;;;;;;;21.33;3.17;;;;;;;8.74;100.00;154724.88;4906278;29;20036;-80
2022/10/03 03:27:03;;;;;;;24.98;3.10;;;;;;;8.70;100.00;154714.66;4918426;29;21532;-80
2022/10/03 03:30:21;;;;;;;26.25;2.90;;;;;;;8.63;100.00;154696.69;4917649;29;20094;-79
2022/10/03 03:33:23;;;;;;;26.00;3.10;;;;;;;8.62;100.00;154692.84;4885042;29;20044;-78
2022/10/03 03:36:03;;;;;;;24.50;3.10;;;;;;;8.74;100.00;154723.63;4899702;29;20036;-77
2022/10/03 03:38:40;;;;;;;23.73;3.28;;;;;;;8.72;100.00;154718.44;4914033;29;20047;-78
2022/10/03 03:41:35;;;;;;;19.92;2.90;;;;;;;8.72;100.00;154719.78;4902439;29;20046;-80
2022/10/03 03:44:10;;;;;;;26.13;2.75;;;;;;;8.70;100.00;154714.66;4934903;29;20897;-78
2022/10/03 03:47:09;;;;;;;17.67;2.88;;;;;;;8.67;100.00;154706.94;4935807;29;20103;-78
2022/10/03 03:50:21;;;;;;;22.95;3.25;;;;;;;8.74;100.00;154723.63;4935784;29;20106;-79
2022/10/03 03:53:16;;;;;;;18.13;2.75;;;;;;;8.73;100.00;154721.03;4930502;29;20398;-78
2022/10/03 03:55:55;;;;;;;17.60;2.78;;;;;;;8.74;100.00;154723.63;4914044;29;20118;-79
2022/10/03 03:58:50;;;;;;;26.27;2.95;;;;;;;8.67;100.00;154706.94;4917535;29;20055;-79
2022/10/03 04:01:34;;;;;;;23.50;2.67;;;;;;;8.66;100.00;154703.09;4903741;29;20127;-79
2022/10/03 04:04:33;;;;;;;20.00;2.50;;;;;;;8.55;100.00;154676.16;4902253;29;20066;-80
2022/10/03 04:07:35;;;;;;;19.77;2.85;;;;;;;8.47;100.00;154655.69;4920212;29;20043;-79
2022/10/03 04:10:04;;;;;;;22.02;2.95;;;;;;;8.43;100.00;154646.72;4917220;29;20411;-81
2022/10/03 04:12:45;;;;;;;16.02;2.47;;;;;;;8.30;100.00;154613.34;4919264;29;20055;-80
2022/10/03 04:15:32;;;;;;;21.40;2.53;;;;;;;8.26;100.00;154603.13;4923354;29;20390;-75
2022/10/03 04:21:09;;;;;;;13.75;2.45;;;;;;;8.11;100.00;154565.97;4915290;29;20036;-81
2022/10/03 04:23:41;;;;;;;19.67;2.65;;;;;;;8.01;100.00;154540.38;4929351;29;20098;-79
2022/10/03 04:26:27;;;;;;;17.25;2.20;;;;;;;7.95;100.00;154527.56;4918723;29;20118;-80
2022/10/03 04:29:28;;;;;;;17.80;2.42;;;;;;;7.90;100.00;154513.47;4902546;29;20044;-82
2022/10/03 04:32:12;;;;;;;22.60;2.70;;;;;;;7.83;100.00;154496.78;4904485;29;20032;-80
2022/10/03 04:35:02;;;;;;;12.07;2.35;;;;;;;7.90;100.00;154513.47;4919028;29;20043;-78
2022/10/03 04:37:46;;;;;;;18.92;2.50;;;;;;;7.91;100.00;154516.00;4913135;29;20064;-79
2022/10/03 04:40:40;;;;;;;23.13;3.17;;;;;;;7.96;100.00;154528.81;4937354;29;20035;-79
2022/10/03 04:43:33;;;;;;;20.17;2.50;;;;;;;7.89;100.00;154510.88;4911322;29;20039;-79
2022/10/03 04:46:24;;;;;;;24.10;2.60;;;;;;;7.80;100.00;154489.13;4920626;29;20042;-78
2022/10/03 04:49:17;;;;;;;16.02;2.65;;;;;;;7.77;100.00;154482.69;4918011;29;20281;-79
2022/10/03 04:51:59;;;;;;;21.00;2.75;;;;;;;7.69;100.00;154460.97;4900808;29;20088;-77
2022/10/03 04:54:58;;;;;;;19.33;2.80;;;;;;;7.75;100.00;154477.59;4924728;29;20053;-80
2022/10/03 04:57:43;;;;;;;26.35;3.40;;;;;;;7.78;100.00;154484.03;4903901;29;20039;-79
2022/10/03 05:00:45;;;;;;;13.13;2.33;;;;;;;7.79;100.00;154487.81;4916724;29;20043;-77
2022/10/03 05:03:20;;;;;;;20.70;2.50;;;;;;;7.75;100.00;154477.59;4919097;29;20040;-77
2022/10/03 05:05:57;;;;;;;21.80;2.83;;;;;;;7.76;100.00;154480.16;4920325;29;20059;-80
2022/10/03 05:08:58;;;;;;;20.63;3.10;;;;;;;7.75;100.00;154476.31;4919274;29;20043;-78
2022/10/03 05:11:48;;;;;;;27.50;3.00;;;;;;;7.68;100.00;154458.38;4904650;29;20044;-81
2022/10/03 05:14:27;;;;;;;13.13;2.30;;;;;;;7.63;100.00;154446.88;4903154;29;20367;-79
2022/10/03 05:16:53;;;;;;;11.35;2.10;;;;;;;7.60;100.00;154439.19;4921453;29;20054;-78
2022/10/03 05:19:28;;;;;;;11.88;2.25;;;;;;;7.55;100.00;154426.34;4922482;29;20041;-79
2022/10/03 05:22:02;;;;;;;19.30;2.58;;;;;;;7.51;100.00;154416.13;4921214;29;20046;-80
2022/10/03 05:25:08;;;;;;;18.95;3.03;;;;;;;7.48;100.00;154408.44;4903093;29;20406;-79
2022/10/03 05:28:00;;;;;;;18.88;2.50;;;;;;;7.42;100.00;154394.34;4919200;29;20062;-80
2022/10/03 05:30:41;;;;;;;12.77;2.80;;;;;;;7.38;100.00;154384.09;4935129;29;20043;-79
2022/10/03 05:33:41;;;;;;;23.15;2.70;;;;;;;7.36;100.00;154379.00;4918868;29;20219;-78
2022/10/03 05:36:25;;;;;;;18.23;2.58;;;;;;;7.32;100.00;154370.03;4932325;29;20043;-79
2022/10/03 05:39:24;;;;;;;20.13;2.30;;;;;;;7.35;100.00;154377.72;4920689;29;20054;-80
2022/10/03 05:42:04;;;;;;;22.02;2.88;;;;;;;7.35;100.00;154377.72;4902899;29;20039;-79
2022/10/03 05:44:41;;;;;;;17.45;2.55;;;;;;;7.38;100.00;154385.44;4937000;29;20051;-78
2022/10/03 05:47:44;;;;;;;18.45;2.40;;;;;;;7.43;100.00;154395.66;4935948;29;20490;-79
2022/10/03 05:50:40;;;;;;;24.23;2.88;;;;;;;7.44;100.00;154398.19;4906218;29;20470;-81
2022/10/03 05:53:44;;;;;;;20.02;2.50;;;;;;;7.51;100.00;154416.13;4920520;29;20027;-79
2022/10/03 05:56:36;;;;;;;17.25;2.97;;;;;;;7.66;100.00;154454.53;4924285;29;20497;-80
2022/10/03 05:59:21;;;;;;;14.18;2.53;;;;;;;7.71;100.00;154467.34;4939031;29;20035;-79
2022/10/03 06:01:56;;;;;;;22.23;3.10;;;;;;;7.78;100.00;154484.03;4922714;29;20024;-80
2022/10/03 06:04:36;;;;;;;21.75;3.88;;;;;;;7.88;100.00;154508.34;4940117;29;20125;-81
2022/10/03 06:07:18;;;;;;;22.95;2.75;;;;;;;7.94;100.00;154523.69;4922809;29;20032;-77
2022/10/03 06:09:53;;;;;;;23.83;3.10;;;;;;;8.02;100.00;154542.91;4940672;29;20087;-78
2022/10/03 06:12:41;;;;;;;19.65;2.80;;;;;;;8.00;100.00;154539.06;4923783;29;20267;-81
2022/10/03 06:15:27;;;;;;;18.85;2.80;;;;;;;8.04;100.00;154548.03;4906759;29;20027;-80
2022/10/03 06:18:22;;;;;;;22.73;3.20;;;;;;;8.15;100.00;154577.47;4906271;29;20051;-78
2022/10/03 06:21:15;;;;;;;22.70;3.33;;;;;;;8.33;100.00;154622.34;4924524;29;20795;-80
2022/10/03 06:24:06;;;;;;;22.38;3.55;;;;;;;8.39;100.00;154637.69;4933584;29;20040;-81
2022/10/03 06:26:47;;;;;;;21.48;3.05;;;;;;;8.35;100.00;154627.44;4907325;29;20042;-81
2022/10/03 06:29:58;;;;;;;22.65;3.15;;;;;;;8.43;100.00;154645.44;4905362;29;20122;-77
2022/10/03 06:32:45;;;;;;;18.17;2.85;;;;;;;8.45;100.00;154651.81;4921606;29;20054;-80
2022/10/03 06:35:56;;;;;;;29.88;3.33;;;;;;;8.54;100.00;154674.91;4925082;29;20766;-78
2022/10/03 06:38:43;;;;;;;18.15;3.50;;;;;;;8.70;100.00;154713.31;4907317;29;20154;-79
2022/10/03 06:41:46;;;;;;;26.00;3.20;;;;;;;8.83;100.00;154746.66;4918953;29;20135;-82
2022/10/03 06:44:42;;;;;;;25.65;3.40;;;;;;;9.02;100.00;154794.06;4919492;29;20040;-78
2022/10/03 06:47:27;;;;;;;27.35;3.85;;;;;;;9.18;100.00;154833.81;4907693;29;20046;-79
2022/10/03 06:50:12;;;;;;;26.67;3.55;;;;;;;9.29;100.00;154860.75;4924009;29;20039;-79
2022/10/03 06:52:59;;;;;;;27.25;3.58;;;;;;;9.51;100.00;154915.84;4916473;29;20055;-79
2022/10/03 06:56:00;;;;;;;26.08;3.65;;;;;;;9.59;100.00;154936.38;4923996;29;20097;-77
2022/10/03 06:58:39;;;;;;;29.88;2.90;;;;;;;9.64;100.00;154947.91;4939540;29;20030;-79
2022/10/03 07:01:11;;;;;;;31.83;3.53;;;;;;;9.67;100.00;154956.88;4930781;29;20036;-78
2022/10/03 07:03:52;;;;;;;30.23;3.75;;;;;;;9.75;100.00;154976.09;4922417;29;20047;-80
2022/10/03 07:06:36;;;;;;;23.75;3.03;;;;;;;9.81;100.00;154990.22;4921559;29;20074;-79
2022/10/03 07:09:26;;;;;;;21.75;2.97;;;;;;;9.94;100.00;155023.56;4907476;29;20035;-80
2022/10/03 07:12:17;;;;;;;28.45;3.67;;;;;;;9.96;100.00;155028.69;4938274;29;20036;-79
2022/10/03 07:15:04;;;;;;;28.95;3.75;;;;;;;10.01;100.00;155041.50;4906405;29;20039;-79
2022/10/03 07:17:55;;;;;;;24.08;3.20;;;;;;;10.11;100.00;155067.19;4920252;29;20059;-78
2022/10/03 07:20:56;;;;;;;25.65;3.13;;;;;;;10.16;100.00;155077.44;4919742;29;20035;-79
2022/10/03 07:23:46;;;;;;;28.48;3.83;;;;;;;10.44;100.00;155148.03;4922739;29;20253;-80
2022/10/03 07:26:42;;;;;;;21.52;3.90;;;;;;;10.62;100.00;155192.91;4924942;29;20044;-80
2022/10/03 07:29:47;;;;;;;30.38;3.67;;;;;;;10.89;100.00;155262.22;4904428;29;20042;-79
2022/10/03 07:32:52;;;;;;;27.30;3.60;;;;;;;11.24;100.00;155348.19;4940884;29;20035;-78
2022/10/03 07:39:01;;;;;;;20.58;3.08;;;;;;;11.09;100.00;155312.28;4919144;29;20031;-80
2022/10/03 07:42:05;;;;;;;19.50;2.88;;;;;;;11.06;100.00;155304.56;4938767;29;20039;-77
2022/10/03 07:45:12;;;;;;;21.85;3.08;;;;;;;11.15;100.00;155326.41;4887000;29;20082;-80
2022/10/03 07:48:02;;;;;;;17.13;2.50;;;;;;;11.17;100.00;155330.22;4915551;29;20047;-79
2022/10/03 07:50:56;;;;;;;19.88;2.80;;;;;;;11.09;100.00;155310.97;4922448;29;20139;-79
2022/10/03 07:53:49;;;;;;;18.45;2.65;;;;;;;11.14;100.00;155322.53;4936898;29;20126;-79
2022/10/03 07:56:53;;;;;;;18.33;3.33;;;;;;;11.41;100.00;155390.56;4900675;29;20095;-79
2022/10/03 07:59:56;;;;;;;14.10;2.28;;;;;;;11.69;100.00;155462.44;4898644;29;20052;-80
2022/10/03 08:03:01;;;;;;;18.33;2.83;;;;;;;11.83;100.00;155495.84;4922028;29;20053;-79
2022/10/03 08:05:40;;;;;;;13.93;2.33;;;;;;;12.01;100.00;155542.09;4919903;29;20059;-78
2022/10/03 08:08:16;;;;;;;17.42;2.60;;;;;;;12.02;100.00;155544.69;4923629;29;20095;-79
2022/10/03 08:11:06;;;;;;;10.82;2.30;;;;;;;12.22;100.00;155593.47;4939165;29;20046;-77
2022/10/03 08:13:46;;;;;;;15.85;2.47;;;;;;;12.39;100.00;155637.13;4925491;29;20036;-79
2022/10/03 08:16:23;;;;;;;14.05;2.33;;;;;;;12.56;100.00;155678.22;4927269;29;20039;-78
2022/10/03 08:19:16;;;;;;;9.27;1.90;;;;;;;12.71;100.00;155716.75;4928992;29;20070;-81
2022/10/03 08:22:05;;;;;;;10.82;2.03;;;;;;;12.76;100.00;155729.63;4930270;29;20035;-79
2022/10/03 08:25:27;;;;;;;17.88;2.90;;;;;;;12.89;100.00;155760.47;4918121;29;20048;-79
2022/10/03 08:28:16;;;;;;;17.85;2.65;;;;;;;13.05;100.00;155801.56;4893365;29;20047;-82
2022/10/03 08:30:51;;;;;;;14.07;2.30;;;;;;;13.11;100.00;155817.00;4901882;29;20043;-81
2022/10/03 08:33:26;;;;;;;14.27;2.50;;;;;;;13.15;100.00;155826.00;4932397;29;20047;-77
2022/10/03 08:36:06;;;;;;;13.85;2.10;;;;;;;13.20;100.00;155840.16;4940648;29;20019;-77
2022/10/03 08:38:57;;;;;;;14.77;2.17;;;;;;;13.34;100.00;155874.88;4909825;29;20059;-79
2022/10/03 08:41:49;;;;;;;15.85;2.45;;;;;;;13.38;100.00;155885.16;4917131;29;20044;-79
2022/10/03 08:44:40;;;;;;;12.48;2.30;;;;;;;13.41;100.00;155892.88;4897845;29;20028;-79
2022/10/03 08:47:31;;;;;;;17.38;2.70;;;;;;;13.44;100.00;155899.28;4914878;29;20044;-78
2022/10/03 08:50:28;;;;;;;15.43;2.45;;;;;;;13.66;100.00;155954.56;4910590;29;20043;-80
2022/10/03 08:53:36;;;;;;;14.85;2.35;;;;;;;13.88;100.00;156009.84;4917882;29;20048;-80
2022/10/03 08:56:08;;;;;;;12.50;2.40;;;;;;;14.13;100.00;156072.84;4902412;29;20039;-78
2022/10/03 08:58:55;;;;;;;13.35;2.10;;;;;;;14.43;100.00;156147.44;4929106;29;20040;-83
2022/10/03 09:02:13;;;;;;;17.73;2.38;;;;;;;14.72;100.00;156220.75;4903784;29;20149;-79
2022/10/03 09:05:11;;;;;;;16.58;2.65;;;;;;;14.47;100.00;156156.44;4898755;29;20072;-81
2022/10/03 09:07:52;;;;;;;14.27;2.33;;;;;;;14.45;100.00;156151.25;4915122;29;20047;-81
2022/10/03 09:10:51;;;;;;;15.57;2.97;;;;;;;14.38;100.00;156134.56;4915774;29;20051;-82
2022/10/03 09:13:53;;;;;;;17.58;2.42;;;;;;;14.49;100.00;156161.56;4913337;29;20048;-77
2022/10/03 09:16:53;;;;;;;23.73;2.88;;;;;;;14.66;100.00;156204.06;4904829;29;20389;-79
2022/10/03 09:19:51;;;;;;;18.83;2.58;;;;;;;14.67;100.00;156206.63;4913467;29;20055;-78
2022/10/03 09:22:43;;;;;;;16.30;2.60;;;;;;;14.45;100.00;156151.25;4899014;29;20063;-80
2022/10/03 09:25:15;;;;;;;;;;;;;;;14.44;100.00;156148.69;4915788;29;20039;-79
2022/10/03 09:28:00;;;;;;;20.42;2.55;;;;;;;14.46;100.00;156153.84;4900795;29;19986;-79
2022/10/03 09:30:34;;;;;;;14.52;2.28;;;;;;;14.51;100.00;156168.00;4912321;29;20043;-80
2022/10/03 09:33:18;;;;;;;18.75;2.75;;;;;;;14.35;100.00;156128.16;4913213;29;20035;-80
2022/10/03 09:36:07;;;;;;;16.35;2.55;;;;;;;14.11;100.00;156066.38;4916184;29;20046;-78
2022/10/03 09:39:02;;;;;;;18.58;2.47;;;;;;;14.04;100.00;156048.41;4905992;29;20039;-82
2022/10/03 09:41:58;;;;;;;11.20;1.83;;;;;;;14.33;100.00;156121.69;4904004;29;20048;-79
2022/10/03 09:44:45;;;;;;;22.67;2.72;;;;;;;14.71;100.00;156218.22;4903706;29;20122;-80
2022/10/03 09:47:36;;;;;;;17.85;3.15;;;;;;;14.66;100.00;156204.06;4897023;29;20040;-79
2022/10/03 09:50:37;;;;;;;14.63;2.60;;;;;;;14.62;100.00;156195.06;4897937;29;20031;-79
2022/10/03 09:53:24;;;;;;;14.35;2.42;;;;;;;14.67;100.00;156206.63;4912155;29;20040;-77
2022/10/03 09:56:24;;;;;;;14.30;2.35;;;;;;;14.57;100.00;156183.47;4916223;29;20043;-79
2022/10/03 09:58:56;;;;;;;18.33;2.70;;;;;;;14.31;100.00;156117.81;4932687;29;20070;-79
2022/10/03 10:01:39;;;;;;;14.45;2.00;;;;;;;14.16;100.00;156080.53;4914655;29;20129;-81
2022/10/03 10:04:35;;;;;;;16.38;2.25;;;;;;;14.16;100.00;156080.53;4916646;29;20063;-81
2022/10/03 10:07:29;;;;;;;13.60;2.25;;;;;;;14.56;100.00;156180.88;4916070;29;20043;-78
2022/10/03 10:10:24;;;;;;;12.93;2.25;;;;;;;14.97;100.00;156282.50;4900891;29;20047;-78
2022/10/03 10:13:14;;;;;;;12.63;1.90;;;;;;;14.90;100.00;156264.47;4915126;29;20464;-80
2022/10/03 10:15:55;;;;;;;13.57;2.25;;;;;;;14.73;100.00;156223.34;4910895;29;20080;-81
2022/10/03 10:18:56;;;;;;;13.02;2.00;;;;;;;14.38;100.00;156134.56;4913253;29;20131;-78
2022/10/03 10:21:47;;;;;;;12.15;2.13;;;;;;;14.56;100.00;156179.53;4929442;29;20050;-80
2022/10/03 10:24:48;;;;;;;12.07;2.60;;;;;;;14.96;100.00;156281.22;4909705;29;20119;-81
2022/10/03 10:27:17;;;;;;;9.27;1.88;;;;;;;15.43;100.00;156397.03;4898041;29;20047;-78
2022/10/03 10:30:20;;;;;;;15.52;2.10;;;;;;;15.69;100.00;156463.94;4913117;29;20130;-78
2022/10/03 10:33:11;;;;;;;13.25;2.10;;;;;;;16.03;100.00;156548.94;4923506;29;20099;-81
2022/10/03 10:36:22;;;;;;;17.63;2.47;;;;;;;15.67;100.00;156457.47;4899617;29;20075;-78
2022/10/03 10:39:27;;;;;;;11.40;1.63;;;;;;;15.21;100.00;156341.72;4914232;29;20106;-81
2022/10/03 10:42:14;;;;;;;13.27;2.30;;;;;;;14.91;100.00;156268.34;4912232;29;20035;-77
2022/10/03 10:44:43;;;;;;;16.20;2.17;;;;;;;15.03;100.00;156296.66;4916051;29;20043;-79
2022/10/03 10:47:16;;;;;;;18.98;2.40;;;;;;;15.31;100.00;156367.41;4921830;29;20039;-78
2022/10/03 10:50:19;;;;;;;12.75;2.20;;;;;;;15.79;100.00;156488.44;4902279;29;20118;-79
2022/10/03 10:53:29;;;;;;;13.07;1.95;;;;;;;16.30;100.00;156617.16;4917296;29;20134;-78
2022/10/03 10:56:19;;;;;;;14.57;2.42;;;;;;;16.38;100.00;156636.47;4900612;29;20059;-79
2022/10/03 10:59:26;;;;;;;13.88;2.22;;;;;;;16.59;100.00;156687.97;4916144;29;20402;-80
2022/10/03 11:02:13;;;;;;;12.38;1.98;;;;;;;16.97;100.00;156783.31;4908567;29;20036;-82
2022/10/03 11:05:16;;;;;;;13.40;1.88;;;;;;;17.01;100.00;156794.91;4910978;29;20150;-80
2022/10/03 11:08:03;;;;;;;10.68;2.00;;;;;;;17.43;100.00;156900.53;4913202;29;20052;-79
2022/10/03 11:10:51;;;;;;;9.93;1.95;;;;;;;17.71;100.00;156970.13;4930273;29;20508;-77
2022/10/03 11:13:56;;;;;;;12.27;1.70;;;;;;;17.46;100.00;156906.97;4929974;29;20573;-79
2022/10/03 11:16:55;;;;;;;7.65;1.67;;;;;;;17.07;100.00;156810.38;4910846;29;20054;-80
2022/10/03 11:19:51;;;;;;;12.40;1.60;;;;;;;16.40;100.00;156640.34;4916083;29;20036;-81
2022/10/03 11:22:53;;;;;;;16.02;2.33;;;;;;;16.07;100.00;156559.25;4916198;29;20046;-80
2022/10/03 11:25:49;;;;;;;17.10;2.42;;;;;;;15.83;100.00;156497.47;4915639;29;20048;-81
2022/10/03 11:28:46;;;;;;;11.27;1.80;;;;;;;15.50;100.00;156415.03;4913850;29;20036;-82
2022/10/03 11:31:46;;;;;;;10.57;1.85;;;;;;;15.44;100.00;156399.59;4914528;29;20493;-81
2022/10/03 11:34:49;;;;;;;8.60;1.67;;;;;;;15.28;100.00;156359.72;4907267;29;20054;-79
2022/10/03 11:37:38;;;;;;;14.07;2.10;;;;;;;15.34;100.00;156376.44;4930316;29;20509;-79
2022/10/03 11:40:12;;;;;;;10.98;1.92;;;;;;;15.41;100.00;156391.84;4911568;29;20562;-78
2022/10/03 11:43:03;;;;;;;14.20;1.73;;;;;;;15.32;100.00;156370.00;4900565;29;20611;-80
2022/10/03 11:45:35;;;;;;;9.10;2.17;;;;;;;15.29;100.00;156363.53;4898221;29;20483;-78
2022/10/03 11:48:25;;;;;;;10.52;1.80;;;;;;;15.21;100.00;156341.72;4900247;29;20474;-78
2022/10/03 11:50:54;;;;;;;8.68;1.65;;;;;;;15.19;100.00;156339.09;4913657;29;20154;-80
2022/10/03 11:53:46;;;;;;;10.88;1.58;;;;;;;15.08;100.00;156309.53;4914009;29;20051;-80
2022/10/03 11:56:44;;;;;;;11.98;2.20;;;;;;;14.87;100.00;156256.78;4914286;29;20040;-82
2022/10/03 11:59:51;;;;;;;12.27;2.30;;;;;;;14.76;100.00;156231.03;4914997;29;20042;-80
2022/10/03 12:03:03;;;;;;;12.65;2.13;;;;;;;14.84;100.00;156250.34;4890108;29;20044;-81
2022/10/03 12:09:10;;;;;;;15.75;2.47;;;;;;;15.05;100.00;156303.13;4909170;29;20032;-79
2022/10/03 12:11:45;;;;;;;11.73;2.03;;;;;;;14.98;100.00;156286.38;4916386;29;20442;-80
2022/10/03 12:14:27;;;;;;;13.00;2.35;;;;;;;14.98;100.00;156285.09;4927952;29;20036;-80
2022/10/03 12:17:15;;;;;;;16.00;3.33;;;;;;;15.49;100.00;156412.47;4907421;29;20784;-78
2022/10/03 12:20:14;;;;;;;13.60;3.00;;;;;;;15.81;100.00;156492.31;4910160;29;20102;-78
2022/10/03 12:22:51;;;;;;;14.90;3.35;;;;;;;15.68;100.00;156460.09;4913270;29;20067;-78
2022/10/03 12:25:29;;;;;;;18.80;3.22;;;;;;;15.53;100.00;156424.03;4913926;29;20036;-80
2022/10/03 12:28:19;;;;;;;14.52;3.10;;;;;;;15.53;100.00;156424.03;4899229;29;20544;-81
2022/10/03 12:31:13;;;;;;;22.40;3.70;;;;;;;15.46;100.00;156404.72;4929982;29;20494;-81
2022/10/03 12:34:20;;;;;;;16.20;2.80;;;;;;;15.33;100.00;156372.56;4909284;29;20035;-80
2022/10/03 12:37:14;;;;;;;11.27;2.30;;;;;;;15.30;100.00;156364.88;4910323;29;20102;-78
2022/10/03 12:40:04;;;;;;;15.50;2.70;;;;;;;15.25;100.00;156352.00;4893912;29;20130;-79
2022/10/03 12:42:55;;;;;;;15.48;3.17;;;;;;;15.16;100.00;156330.09;4915292;29;20127;-80
2022/10/03 12:45:49;;;;;;;13.07;2.20;;;;;;;15.11;100.00;156318.53;4912805;29;20040;-80
2022/10/03 12:48:32;;;;;;;14.52;2.35;;;;;;;15.10;100.00;156315.94;4927833;29;20482;-81
2022/10/03 12:51:43;;;;;;;12.88;2.20;;;;;;;15.02;100.00;156295.38;4899863;29;20039;-79
2022/10/03 12:54:35;;;;;;;13.27;2.03;;;;;;;15.16;100.00;156331.41;4914903;29;20043;-80
2022/10/03 12:57:34;;;;;;;14.32;2.97;;;;;;;15.37;100.00;156382.88;4909600;29;20046;-77
2022/10/03 13:00:13;;;;;;;11.80;2.17;;;;;;;15.60;100.00;156440.78;4911347;29;20043;-80
2022/10/03 13:02:41;;;;;;;9.70;1.98;;;;;;;15.66;100.00;156456.22;4925138;29;20074;-78
2022/10/03 13:05:35;;;;;;;15.48;2.30;;;;;;;15.64;100.00;156451.06;4916709;29;20042;-80
2022/10/03 13:08:29;;;;;;;14.40;2.08;;;;;;;15.62;100.00;156445.94;4903275;29;20031;-78